createdAt,value
2022-09-30T03:46:43.843Z,9.80
2022-09-30T03:49:20.204Z,9.80
2022-09-30T03:51:50.768Z,9.80
2022-09-30T03:54:18.067Z,9.80
2022-09-30T03:56:44.843Z,9.90
2022-09-30T03:59:31.848Z,9.80
2022-09-30T04:01:58.656Z,9.90
2022-09-30T04:04:25.433Z,9.90
2022-09-30T04:06:52.213Z,9.90
2022-09-30T04:09:19.019Z,9.90
2022-09-30T04:11:45.803Z,9.90
2022-09-30T04:14:12.604Z,9.90
2022-09-30T04:16:39.385Z,9.90
2022-09-30T04:19:06.254Z,9.90
2022-09-30T04:21:32.986Z,9.90
2022-09-30T04:23:59.700Z,9.90
2022-09-30T04:26:26.540Z,9.90
2022-09-30T04:28:53.307Z,9.90
2022-09-30T04:31:21.285Z,9.80
2022-09-30T04:33:48.218Z,9.80
2022-09-30T04:36:15.096Z,9.70
2022-09-30T04:38:41.883Z,9.80
2022-09-30T04:41:17.297Z,9.80
2022-09-30T04:43:47.894Z,9.80
2022-09-30T04:46:16.525Z,9.80
2022-09-30T04:48:45.783Z,9.80
2022-09-30T04:51:14.046Z,9.80
2022-09-30T04:53:40.787Z,9.70
2022-09-30T04:56:08.002Z,9.70
2022-09-30T04:58:37.110Z,9.70
2022-09-30T05:01:15.681Z,9.70
2022-09-30T05:03:43.384Z,9.70
2022-09-30T05:06:11.140Z,9.70
2022-09-30T05:08:41.730Z,9.60
2022-09-30T05:11:14.569Z,9.70
2022-09-30T05:13:41.714Z,9.60
2022-09-30T05:16:08.881Z,9.50
2022-09-30T05:18:35.970Z,9.40
2022-09-30T05:21:03.629Z,9.40
2022-09-30T05:23:32.879Z,9.40
2022-09-30T05:26:00.911Z,9.50
2022-09-30T05:28:27.938Z,9.60
2022-09-30T05:31:02.678Z,9.60
2022-09-30T05:33:29.973Z,9.60
2022-09-30T05:36:02.488Z,9.70
2022-09-30T05:38:29.709Z,9.60
2022-09-30T05:40:56.483Z,9.60
2022-09-30T05:43:23.846Z,9.60
2022-09-30T05:45:57.548Z,9.70
2022-09-30T05:48:25.517Z,9.70
2022-09-30T05:51:01.553Z,9.70
2022-09-30T05:53:30.106Z,9.80
2022-09-30T05:55:56.791Z,9.80
2022-09-30T05:58:24.398Z,9.80
2022-09-30T06:00:51.132Z,9.90
2022-09-30T06:03:18.604Z,9.90
2022-09-30T06:05:45.954Z,9.90
2022-09-30T06:08:14.501Z,9.90
2022-09-30T06:10:42.959Z,9.90
2022-09-30T06:13:10.231Z,10.00
2022-09-30T06:15:38.910Z,10.00
2022-09-30T06:18:05.910Z,10.00
2022-09-30T06:20:32.867Z,10.10
2022-09-30T06:23:03.205Z,10.20
2022-09-30T06:25:30.675Z,10.20
2022-09-30T06:27:58.314Z,10.20
2022-09-30T06:30:25.367Z,10.30
2022-09-30T06:32:54.018Z,10.30
2022-09-30T06:35:22.127Z,10.40
2022-09-30T06:37:51.410Z,10.50
2022-09-30T06:40:18.331Z,10.50
2022-09-30T06:42:45.245Z,10.50
2022-09-30T06:45:21.373Z,10.50
2022-09-30T06:48:00.343Z,10.50
2022-09-30T06:50:28.238Z,10.60
2022-09-30T06:53:03.546Z,10.60
2022-09-30T06:55:30.648Z,10.60
2022-09-30T06:57:57.689Z,10.70
2022-09-30T07:00:25.421Z,10.70
2022-09-30T07:02:54.867Z,10.80
2022-09-30T07:05:21.744Z,10.90
2022-09-30T07:07:49.107Z,10.90
2022-09-30T07:10:15.950Z,11.00
2022-09-30T07:12:42.677Z,11.10
2022-09-30T07:15:13.594Z,11.20
2022-09-30T07:17:40.749Z,11.30
2022-09-30T07:20:08.286Z,11.40
2022-09-30T07:22:34.983Z,11.40
2022-09-30T07:25:04.090Z,11.50
2022-09-30T07:27:33.133Z,11.60
2022-09-30T07:32:47.502Z,11.60
2022-09-30T07:35:14.356Z,11.60
2022-09-30T07:37:40.998Z,11.60
2022-09-30T07:40:09.443Z,11.60
2022-09-30T07:42:40.118Z,11.60
2022-09-30T07:45:07.286Z,11.60
2022-09-30T07:47:34.016Z,11.60
2022-09-30T07:50:01.303Z,11.70
2022-09-30T07:52:27.974Z,11.80
2022-09-30T07:54:55.727Z,11.80
2022-09-30T07:57:22.353Z,11.90
2022-09-30T07:59:49.030Z,12.00
2022-09-30T08:02:18.003Z,11.90
2022-09-30T08:04:45.248Z,11.90
2022-09-30T08:07:14.140Z,11.90
2022-09-30T08:09:40.999Z,12.10
2022-09-30T08:12:08.174Z,12.20
2022-09-30T08:14:35.053Z,12.20
2022-09-30T08:17:01.982Z,12.20
2022-09-30T08:19:30.264Z,12.10
2022-09-30T08:21:57.852Z,12.10
2022-09-30T08:24:26.141Z,12.10
2022-09-30T08:26:53.314Z,12.20
2022-09-30T08:29:30.182Z,12.30
2022-09-30T08:32:07.108Z,12.50
2022-09-30T08:34:35.668Z,12.70
2022-09-30T08:37:07.737Z,13.00
2022-09-30T08:39:36.125Z,13.30
2022-09-30T08:42:38.094Z,13.40
2022-09-30T08:45:19.948Z,13.70
2022-09-30T08:48:07.543Z,13.90
2022-09-30T08:50:56.407Z,13.90
2022-09-30T08:53:30.206Z,14.00
2022-09-30T08:56:02.311Z,13.90
2022-09-30T08:58:36.793Z,14.00
2022-09-30T09:01:26.574Z,13.90
2022-09-30T09:03:54.144Z,14.00
2022-09-30T09:06:46.076Z,14.00
2022-09-30T09:09:32.673Z,14.00
2022-09-30T09:12:20.999Z,14.30
2022-09-30T09:15:08.095Z,14.90
2022-09-30T09:18:22.110Z,15.40
2022-09-30T09:20:59.884Z,15.90
2022-09-30T09:23:31.012Z,16.40
2022-09-30T09:25:58.398Z,16.30
2022-09-30T09:28:38.063Z,16.10
2022-09-30T09:31:05.271Z,16.10
2022-09-30T09:33:36.466Z,15.90
2022-09-30T09:36:20.788Z,15.80
2022-09-30T09:39:08.374Z,15.60
2022-09-30T09:41:58.734Z,15.70
2022-09-30T09:44:37.184Z,15.80
2022-09-30T09:47:17.361Z,16.00
2022-09-30T09:49:57.953Z,16.20
2022-09-30T09:52:37.000Z,16.60
2022-09-30T09:55:03.964Z,17.10
2022-09-30T09:57:33.750Z,17.80
2022-09-30T10:00:21.933Z,18.30
2022-09-30T10:03:21.002Z,19.50
2022-09-30T10:06:12.752Z,21.20
2022-09-30T10:08:52.691Z,22.20
2022-09-30T10:11:25.148Z,23.30
2022-09-30T10:13:57.948Z,24.20
2022-09-30T10:16:38.037Z,23.10
2022-09-30T10:19:18.462Z,22.40
2022-09-30T10:21:45.469Z,22.70
2022-09-30T10:24:26.628Z,23.10
2022-09-30T10:26:53.288Z,22.60
2022-09-30T10:29:29.669Z,21.50
2022-09-30T10:31:59.676Z,20.60
2022-09-30T10:34:32.022Z,20.40
2022-09-30T10:37:07.154Z,20.30
2022-09-30T10:39:37.733Z,20.20
2022-09-30T10:42:04.445Z,20.70
2022-09-30T10:44:31.291Z,21.00
2022-09-30T10:47:02.957Z,21.50
2022-09-30T10:49:53.390Z,21.60
2022-09-30T10:52:27.005Z,21.60
2022-09-30T10:55:21.171Z,22.00
2022-09-30T10:57:51.141Z,22.20
2022-09-30T11:00:19.535Z,21.90
2022-09-30T11:03:12.690Z,21.80
2022-09-30T11:05:45.314Z,21.90
2022-09-30T11:08:23.126Z,22.60
2022-09-30T11:11:11.359Z,23.30
2022-09-30T11:13:57.327Z,22.80
2022-09-30T11:16:45.697Z,22.70
2022-09-30T11:19:29.109Z,22.80
2022-09-30T11:21:57.103Z,23.40
2022-09-30T11:24:48.955Z,23.10
2022-09-30T11:27:52.550Z,22.20
2022-09-30T11:30:29.494Z,22.10
2022-09-30T11:33:12.650Z,22.20
2022-09-30T11:35:44.406Z,22.60
2022-09-30T11:38:38.569Z,22.90
2022-09-30T11:41:11.146Z,23.00
2022-09-30T11:43:54.145Z,22.40
2022-09-30T11:46:48.584Z,22.50
2022-09-30T11:49:41.442Z,22.60
2022-09-30T11:52:47.593Z,22.00
2022-09-30T11:55:35.185Z,21.80
2022-09-30T11:58:41.765Z,22.10
2022-09-30T12:01:11.986Z,22.20
2022-09-30T12:03:45.554Z,21.30
2022-09-30T12:06:38.957Z,21.90
2022-09-30T12:09:19.769Z,22.60
2022-09-30T12:11:56.068Z,23.20
2022-09-30T12:14:25.905Z,23.50
2022-09-30T12:16:53.276Z,23.90
2022-09-30T12:19:43.872Z,23.60
2022-09-30T12:22:14.209Z,23.50
2022-09-30T12:24:45.171Z,23.30
2022-09-30T12:27:21.377Z,23.40
2022-09-30T12:30:17.691Z,23.20
2022-09-30T12:33:11.486Z,23.30
2022-09-30T12:36:03.730Z,23.30
2022-09-30T12:38:30.337Z,23.30
2022-09-30T12:40:56.924Z,23.50
2022-09-30T12:43:27.617Z,23.70
2022-09-30T12:46:09.308Z,23.20
2022-09-30T12:48:44.550Z,22.80
2022-09-30T12:51:26.215Z,22.30
2022-09-30T12:53:59.966Z,21.80
2022-09-30T12:56:30.365Z,21.00
2022-09-30T12:58:57.974Z,20.10
2022-09-30T13:01:35.815Z,19.60
2022-09-30T13:04:02.461Z,19.40
2022-09-30T13:06:49.058Z,19.30
2022-09-30T13:09:59.365Z,19.10
2022-09-30T13:12:46.802Z,18.70
2022-09-30T13:15:28.471Z,18.70
2022-09-30T13:17:55.290Z,18.30
2022-09-30T13:20:53.008Z,18.10
2022-09-30T13:23:49.031Z,18.30
2022-09-30T13:26:28.076Z,19.00
2022-09-30T13:29:00.865Z,19.60
2022-09-30T13:31:30.039Z,19.80
2022-09-30T13:34:02.868Z,19.80
2022-09-30T13:36:57.062Z,19.60
2022-09-30T13:39:35.521Z,19.40
2022-09-30T13:42:15.223Z,19.40
2022-09-30T13:45:00.148Z,19.30
2022-09-30T13:47:40.400Z,19.00
2022-09-30T13:50:20.461Z,18.90
2022-09-30T13:52:53.736Z,18.90
2022-09-30T13:55:28.479Z,19.40
2022-09-30T13:58:02.913Z,19.70
2022-09-30T14:00:54.387Z,19.90
2022-09-30T14:03:38.596Z,20.00
2022-09-30T14:06:06.262Z,20.60
2022-09-30T14:09:07.223Z,21.10
2022-09-30T14:11:47.799Z,21.30
2022-09-30T14:14:17.575Z,21.80
2022-09-30T14:17:16.890Z,21.40
2022-09-30T14:20:22.927Z,21.20
2022-09-30T14:22:49.592Z,21.10
2022-09-30T14:25:19.167Z,20.30
2022-09-30T14:27:58.294Z,19.50
2022-09-30T14:30:26.900Z,19.00
2022-09-30T14:33:31.565Z,18.80
2022-09-30T14:36:02.113Z,19.10
2022-09-30T14:38:31.651Z,19.30
2022-09-30T14:41:07.922Z,19.60
2022-09-30T14:43:42.949Z,19.70
2022-09-30T14:46:34.475Z,19.90
2022-09-30T14:49:06.780Z,20.10
2022-09-30T14:51:43.574Z,20.20
2022-09-30T14:54:19.583Z,20.50
2022-09-30T14:56:47.310Z,20.60
2022-09-30T14:59:20.012Z,20.10
2022-09-30T15:01:55.488Z,19.50
2022-09-30T15:04:26.514Z,18.60
2022-09-30T15:06:53.773Z,18.10
2022-09-30T15:09:28.911Z,18.10
2022-09-30T15:11:55.742Z,17.80
2022-09-30T15:14:24.495Z,17.70
2022-09-30T15:16:54.370Z,17.50
2022-09-30T15:19:24.609Z,17.10
2022-09-30T15:21:53.834Z,17.10
2022-09-30T15:24:23.018Z,17.30
2022-09-30T15:26:51.270Z,17.50
2022-09-30T15:29:18.341Z,17.30
2022-09-30T15:31:54.326Z,17.20
2022-09-30T15:34:24.675Z,17.10
2022-09-30T15:37:11.684Z,17.00
2022-09-30T15:40:00.314Z,17.00
2022-09-30T15:43:01.246Z,16.90
2022-09-30T15:45:36.748Z,16.50
2022-09-30T15:48:22.531Z,16.20
2022-09-30T15:50:53.012Z,16.10
2022-09-30T15:53:36.166Z,16.20
2022-09-30T15:56:37.644Z,16.30
2022-09-30T15:59:12.277Z,16.10
2022-09-30T16:01:38.999Z,15.90
2022-09-30T16:04:14.216Z,15.80
2022-09-30T16:06:40.854Z,15.80
2022-09-30T16:09:24.840Z,15.60
2022-09-30T16:12:08.887Z,15.40
2022-09-30T16:14:49.969Z,15.30
2022-09-30T16:17:26.950Z,15.20
2022-09-30T16:19:59.033Z,15.10
2022-09-30T16:22:41.169Z,15.00
2022-09-30T16:25:10.997Z,14.90
2022-09-30T16:27:38.322Z,14.80
2022-09-30T16:30:07.910Z,14.60
2022-09-30T16:32:41.446Z,14.40
2022-09-30T16:35:25.010Z,14.30
2022-09-30T16:37:59.396Z,14.10
2022-09-30T16:40:28.744Z,14.00
2022-09-30T16:42:55.872Z,13.80
2022-09-30T16:45:23.014Z,13.70
2022-09-30T16:47:50.494Z,13.50
2022-09-30T16:50:22.797Z,13.30
2022-09-30T16:52:49.451Z,13.20
2022-09-30T16:57:47.962Z,12.90
2022-09-30T17:00:17.966Z,12.70
2022-09-30T17:02:46.831Z,12.50
2022-09-30T17:05:20.397Z,12.40
2022-09-30T17:07:50.498Z,12.40
2022-09-30T17:10:27.971Z,12.40
2022-09-30T17:13:02.208Z,12.40
2022-09-30T17:15:31.133Z,12.40
2022-09-30T17:17:58.795Z,12.40
2022-09-30T17:20:26.297Z,12.40
2022-09-30T17:22:53.062Z,12.30
2022-09-30T17:25:19.996Z,12.40
2022-09-30T17:27:52.640Z,12.40
2022-09-30T17:30:20.056Z,12.40
2022-09-30T17:32:47.394Z,12.40
2022-09-30T17:35:14.517Z,12.30
2022-09-30T17:37:45.303Z,12.30
2022-09-30T17:40:32.037Z,12.30
2022-09-30T17:43:07.965Z,12.20
2022-09-30T17:45:35.487Z,12.20
2022-09-30T17:48:02.417Z,12.20
2022-09-30T17:50:29.312Z,12.20
2022-09-30T17:52:56.346Z,12.20
2022-09-30T17:55:23.047Z,12.20
2022-09-30T17:57:50.738Z,12.30
2022-09-30T18:00:17.439Z,12.40
2022-09-30T18:02:44.688Z,12.30
2022-09-30T18:05:11.737Z,12.40
2022-09-30T18:07:38.377Z,12.40
2022-09-30T18:10:05.430Z,12.30
2022-09-30T18:12:34.249Z,12.30
2022-09-30T18:15:01.129Z,12.30
2022-09-30T18:17:28.565Z,12.30
2022-09-30T18:19:55.278Z,12.30
2022-09-30T18:22:21.930Z,12.20
2022-09-30T18:25:07.254Z,12.00
2022-09-30T18:27:33.963Z,12.00
2022-09-30T18:30:02.732Z,11.90
2022-09-30T18:32:29.638Z,11.80
2022-09-30T18:34:56.605Z,11.80
2022-09-30T18:37:24.259Z,11.70
2022-09-30T18:39:51.401Z,11.60
2022-09-30T18:42:20.047Z,11.40
2022-09-30T18:44:47.474Z,11.40
2022-09-30T18:47:17.391Z,11.20
2022-09-30T18:49:44.644Z,11.00
2022-09-30T18:52:11.400Z,11.00
2022-09-30T18:54:38.091Z,10.90
2022-09-30T18:57:05.157Z,10.90
2022-09-30T18:59:31.799Z,10.90
2022-09-30T19:01:59.651Z,10.90
2022-09-30T19:04:26.458Z,10.80
2022-09-30T19:06:53.233Z,10.80
2022-09-30T19:09:19.898Z,10.80
2022-09-30T19:11:47.988Z,10.80
2022-09-30T19:14:15.477Z,10.80
2022-09-30T19:16:43.439Z,10.80
2022-09-30T19:19:10.614Z,10.90
2022-09-30T19:21:38.565Z,10.90
2022-09-30T19:24:07.438Z,10.90
2022-09-30T19:26:36.576Z,11.00
2022-09-30T19:29:05.004Z,11.00
2022-09-30T19:31:35.944Z,11.00
2022-09-30T19:34:03.657Z,11.00
2022-09-30T19:36:40.063Z,11.00
2022-09-30T19:39:12.454Z,11.00
2022-09-30T19:41:39.417Z,11.00
2022-09-30T19:44:06.236Z,11.00
2022-09-30T19:46:33.220Z,11.00
2022-09-30T19:48:59.942Z,11.00
2022-09-30T19:51:29.175Z,11.00
2022-09-30T19:54:05.381Z,11.00
2022-09-30T19:56:34.128Z,11.10
2022-09-30T19:59:00.808Z,11.10
2022-09-30T20:01:28.709Z,11.10
2022-09-30T20:03:57.687Z,11.10
2022-09-30T20:06:24.437Z,11.10
2022-09-30T20:08:53.745Z,11.10
2022-09-30T20:11:22.351Z,11.10
2022-09-30T20:13:50.706Z,11.10
2022-09-30T20:16:17.460Z,11.00
2022-09-30T20:18:44.278Z,11.10
2022-09-30T20:21:14.010Z,11.00
2022-09-30T20:23:42.013Z,11.00
2022-09-30T20:26:13.162Z,11.00
2022-09-30T20:28:40.198Z,11.00
2022-09-30T20:31:12.104Z,11.00
2022-09-30T20:33:39.706Z,10.90
2022-09-30T20:36:08.583Z,10.90
2022-09-30T20:38:35.283Z,10.90
2022-09-30T20:41:03.156Z,10.80
2022-09-30T20:43:31.385Z,10.80
2022-09-30T20:46:01.763Z,10.70
2022-09-30T20:48:33.715Z,10.60
2022-09-30T20:51:04.381Z,10.50
2022-09-30T20:53:31.074Z,10.50
2022-09-30T20:56:00.939Z,10.40
2022-09-30T20:58:28.012Z,10.30
2022-09-30T21:01:04.272Z,10.30
2022-09-30T21:03:34.678Z,10.30
2022-09-30T21:06:01.919Z,10.20
2022-09-30T21:08:28.657Z,10.10
2022-09-30T21:10:56.363Z,10.10
2022-09-30T21:13:23.114Z,10.00
2022-09-30T21:16:08.338Z,9.90
2022-09-30T21:18:35.088Z,9.90
2022-09-30T21:21:03.079Z,9.70
2022-09-30T21:23:31.338Z,9.60
2022-09-30T21:26:04.221Z,9.50
2022-09-30T21:28:31.526Z,9.50
2022-09-30T21:30:59.152Z,9.50
2022-09-30T21:33:26.213Z,9.40
2022-09-30T21:36:00.544Z,9.40
2022-09-30T21:38:27.483Z,9.40
2022-09-30T21:41:01.997Z,9.30
2022-09-30T21:43:30.239Z,9.20
2022-09-30T21:46:01.762Z,9.30
2022-09-30T21:48:30.526Z,9.30
2022-09-30T21:50:57.694Z,9.20
2022-09-30T21:53:27.732Z,9.20
2022-09-30T21:55:55.837Z,9.30
2022-09-30T21:58:25.138Z,9.30
2022-09-30T22:00:52.917Z,9.30
2022-09-30T22:03:20.077Z,9.40
2022-09-30T22:05:54.506Z,9.50
2022-09-30T22:08:21.954Z,9.50
2022-09-30T22:10:50.752Z,9.50
2022-09-30T22:13:17.913Z,9.60
2022-09-30T22:15:45.987Z,9.60
2022-09-30T22:18:17.265Z,9.60
2022-09-30T22:20:48.030Z,9.60
2022-09-30T22:23:15.071Z,9.60
2022-09-30T22:25:41.890Z,9.60
2022-09-30T22:28:08.592Z,9.70
2022-09-30T22:30:35.383Z,9.60
2022-09-30T22:33:20.511Z,9.50
2022-09-30T22:36:16.481Z,9.50
2022-09-30T22:38:43.386Z,9.40
2022-09-30T22:41:10.038Z,9.50
2022-09-30T22:43:36.753Z,9.40
2022-09-30T22:46:05.459Z,9.50
2022-09-30T22:48:32.595Z,9.40
2022-09-30T22:51:00.039Z,9.40
2022-09-30T22:53:27.811Z,9.40
2022-09-30T22:55:55.252Z,9.40
2022-09-30T22:58:25.941Z,9.40
2022-09-30T23:00:58.464Z,9.40
2022-09-30T23:03:25.991Z,9.40
2022-09-30T23:05:58.954Z,9.30
2022-09-30T23:08:30.304Z,9.20
2022-09-30T23:10:57.487Z,9.10
2022-09-30T23:13:24.161Z,9.10
2022-09-30T23:15:57.650Z,9.10
2022-09-30T23:18:24.284Z,9.10
2022-09-30T23:21:02.031Z,9.10
2022-09-30T23:23:33.463Z,9.10
2022-09-30T23:26:18.173Z,9.10
2022-09-30T23:28:45.820Z,9.10
